Time;durP1;ratioP1;P1;durP2;ratioP2;P2;SDS_P1;SDS_P2;PMS_P1;PMS_P2;Temp;Humidity;BMP_temperature;BMP_pressure;BME280_temperature;BME280_humidity;BME280_pressure;Samples;Min_cycle;Max_cycle;Signal;HPM_P1;HPM_P2
2022/08/18 00:01:39;;;;;;;131.45;97.50;;;18.50;99.90;;;;;;5067210;28;22016;-74
2022/08/18 00:04:08;;;;;;;126.70;94.13;;;18.50;99.90;;;;;;5065906;28;20053;-73
2022/08/18 00:06:55;;;;;;;121.15;89.45;;;18.40;99.90;;;;;;5058741;28;20052;-74
2022/08/18 00:09:22;;;;;;;142.20;99.88;;;18.30;99.90;;;;;;5057085;28;20312;-73
2022/08/18 00:11:49;;;;;;;139.85;101.57;;;18.30;99.90;;;;;;5061205;28;20076;-74
2022/08/18 00:14:18;;;;;;;139.95;97.60;;;18.30;99.90;;;;;;5067453;28;20131;-76
2022/08/18 00:16:52;;;;;;;148.20;103.43;;;18.50;99.90;;;;;;5062578;28;20492;-76
2022/08/18 00:19:21;;;;;;;135.38;95.07;;;18.40;99.90;;;;;;5066525;28;20048;-76
2022/08/18 00:22:09;;;;;;;130.05;93.72;;;18.30;99.90;;;;;;5050445;28;20131;-77
2022/08/18 00:24:43;;;;;;;130.27;93.60;;;18.20;99.90;;;;;;5057440;28;20127;-75
2022/08/18 00:27:28;;;;;;;135.45;98.63;;;18.20;99.90;;;;;;5059236;28;20043;-77
2022/08/18 00:30:01;;;;;;;130.30;94.35;;;18.10;99.90;;;;;;5050766;28;20263;-74
2022/08/18 00:32:32;;;;;;;139.25;100.25;;;18.00;99.90;;;;;;5059682;28;20568;-74
2022/08/18 00:35:06;;;;;;;134.32;97.30;;;17.90;99.90;;;;;;5048228;28;20055;-74
2022/08/18 00:37:33;;;;;;;148.45;102.88;;;18.00;99.90;;;;;;5052594;28;20093;-74
2022/08/18 00:40:00;;;;;;;151.07;107.03;;;18.00;99.90;;;;;;5057466;28;20614;-75
2022/08/18 00:42:28;;;;;;;160.70;108.78;;;17.90;99.90;;;;;;5061626;28;20036;-74
2022/08/18 00:45:05;;;;;;;173.60;113.43;;;17.90;99.90;;;;;;5051871;28;20045;-76
2022/08/18 00:47:31;;;;;;;159.65;109.07;;;17.90;99.90;;;;;;5058566;28;20125;-75
2022/08/18 00:50:15;;;;;;;167.32;115.38;;;17.90;99.90;;;;;;5064239;28;20048;-75
2022/08/18 00:52:52;;;;;;;171.55;117.43;;;17.90;99.90;;;;;;5055789;28;20051;-74
2022/08/18 00:55:21;;;;;;;182.43;123.00;;;17.90;99.90;;;;;;5048926;28;20049;-74
2022/08/18 00:57:51;;;;;;;184.90;122.43;;;17.80;99.90;;;;;;5044417;28;20267;-73
2022/08/18 01:00:18;;;;;;;190.68;125.10;;;17.80;99.90;;;;;;5048886;28;20040;-74
2022/08/18 01:02:50;;;;;;;190.85;126.03;;;17.90;99.90;;;;;;5057324;28;20059;-74
2022/08/18 01:05:25;;;;;;;197.43;125.18;;;17.90;99.90;;;;;;5037834;28;20068;-75
2022/08/18 01:07:52;;;;;;;189.95;123.18;;;17.90;99.90;;;;;;5056170;28;20699;-74
2022/08/18 01:10:22;;;;;;;180.07;119.10;;;17.80;99.90;;;;;;5059390;28;20056;-74
2022/08/18 01:12:52;;;;;;;131.65;90.78;;;17.70;99.90;;;;;;5067645;28;20064;-74
2022/08/18 01:15:22;;;;;;;137.98;97.90;;;17.50;99.90;;;;;;5055150;28;20072;-73
2022/08/18 01:23:52;;;;;;;184.85;119.22;;;17.20;99.90;;;;;;5053711;28;20044;-74
2022/08/18 01:26:21;;;;;;;198.75;124.65;;;17.30;99.90;;;;;;5058339;28;20047;-74
2022/08/18 01:28:49;;;;;;;213.40;131.38;;;17.30;99.90;;;;;;5059682;28;20052;-74
2022/08/18 01:31:54;;;;;;;248.25;141.60;;;17.30;99.90;;;;;;5065575;28;20035;-74
2022/08/18 01:34:25;;;;;;;221.40;134.23;;;17.20;99.90;;;;;;5081334;28;20044;-74
2022/08/18 01:36:53;;;;;;;216.23;131.45;;;17.20;99.90;;;;;;5051866;28;20051;-73
2022/08/18 01:39:21;;;;;;;231.27;134.35;;;17.20;99.90;;;;;;5049939;28;20048;-76
2022/08/18 01:42:09;;;;;;;210.73;125.72;;;17.30;99.90;;;;;;5054180;28;20468;-76
2022/08/18 01:44:36;;;;;;;194.60;120.63;;;17.20;99.90;;;;;;5065052;28;20117;-74
2022/08/18 01:47:03;;;;;;;186.63;116.18;;;17.00;99.90;;;;;;5058638;28;20040;-74
2022/08/18 01:49:29;;;;;;;172.88;111.93;;;16.90;99.90;;;;;;5055498;28;20077;-76
2022/08/18 01:51:56;;;;;;;177.13;113.28;;;16.90;99.90;;;;;;5056749;28;20044;-74
2022/08/18 01:54:27;;;;;;;174.20;112.90;;;16.80;99.90;;;;;;5052540;28;20223;-73
2022/08/18 01:56:55;;;;;;;222.45;129.90;;;16.90;99.90;;;;;;5055908;28;20043;-75
2022/08/18 01:59:22;;;;;;;225.13;130.85;;;16.90;99.90;;;;;;5051274;28;20074;-74
2022/08/18 02:01:54;;;;;;;229.20;135.10;;;17.00;99.90;;;;;;5040665;28;20070;-73
2022/08/18 02:04:27;;;;;;;241.55;134.00;;;16.90;99.90;;;;;;5052352;28;20043;-77
2022/08/18 02:07:06;;;;;;;283.77;149.68;;;16.90;99.90;;;;;;5054795;28;20530;-76
2022/08/18 02:09:35;;;;;;;299.80;156.35;;;16.90;99.90;;;;;;5054397;28;20039;-74
2022/08/18 02:12:04;;;;;;;302.88;153.80;;;16.90;99.90;;;;;;5055336;28;20051;-73
2022/08/18 02:14:32;;;;;;;330.95;164.98;;;17.00;99.90;;;;;;5044990;28;20634;-74
2022/08/18 02:17:00;;;;;;;298.75;154.40;;;17.10;99.90;;;;;;5058131;28;20086;-76
2022/08/18 02:19:33;;;;;;;301.83;159.07;;;17.10;99.90;;;;;;5052298;28;20097;-75
2022/08/18 02:22:00;;;;;;;306.20;156.23;;;17.10;99.90;;;;;;5062265;28;20094;-74
2022/08/18 02:24:27;;;;;;;298.00;149.98;;;17.20;99.90;;;;;;5059509;28;20118;-74
2022/08/18 02:26:54;;;;;;;338.40;165.65;;;17.30;99.90;;;;;;5058667;28;20036;-74
2022/08/18 02:29:20;;;;;;;340.73;168.45;;;17.30;99.90;;;;;;5057965;28;20062;-74
2022/08/18 02:31:48;;;;;;;398.40;177.45;;;17.30;99.90;;;;;;5065756;28;20041;-74
2022/08/18 02:34:16;;;;;;;343.38;165.35;;;17.30;99.90;;;;;;5060051;28;20048;-76
2022/08/18 02:36:43;;;;;;;303.95;155.95;;;17.40;99.90;;;;;;5049262;28;20701;-74
2022/08/18 02:39:10;;;;;;;282.67;154.40;;;17.40;99.90;;;;;;5056289;28;20297;-76
2022/08/18 02:41:37;;;;;;;346.45;165.23;;;17.40;99.90;;;;;;5051710;28;20052;-75
2022/08/18 02:44:06;;;;;;;336.40;163.70;;;17.50;99.90;;;;;;5056467;28;20076;-75
2022/08/18 02:46:34;;;;;;;328.02;158.07;;;17.50;99.90;;;;;;5075734;22;20098;-75
2022/08/18 02:49:01;;;;;;;309.55;157.38;;;17.50;99.90;;;;;;5058787;28;20052;-77
2022/08/18 02:51:28;;;;;;;293.05;151.98;;;17.50;99.90;;;;;;5046753;28;20081;-80
2022/08/18 02:53:58;;;;;;;307.98;153.63;;;17.50;99.90;;;;;;5058899;28;20562;-78
2022/08/18 02:56:28;;;;;;;321.10;156.20;;;17.50;99.90;;;;;;5033189;28;20040;-79
2022/08/18 02:59:11;;;;;;;269.17;143.52;;;17.50;99.90;;;;;;5059958;28;20138;-79
2022/08/18 03:01:42;;;;;;;316.38;154.95;;;17.60;99.90;;;;;;5032809;28;20226;-79
2022/08/18 03:04:13;;;;;;;340.45;163.05;;;17.50;99.90;;;;;;5028955;28;20048;-79
2022/08/18 03:06:40;;;;;;;304.65;153.35;;;17.70;99.90;;;;;;5050340;28;20048;-79
2022/08/18 03:09:08;;;;;;;300.38;152.13;;;17.60;99.90;;;;;;5042699;28;20052;-79
2022/08/18 03:11:36;;;;;;;326.55;161.00;;;17.60;99.90;;;;;;5045014;28;20131;-79
2022/08/18 03:14:07;;;;;;;305.05;157.05;;;17.50;99.90;;;;;;5052609;28;20053;-79
2022/08/18 03:16:39;;;;;;;300.90;150.25;;;17.50;99.90;;;;;;5051878;28;20102;-79
2022/08/18 03:19:28;;;;;;;306.25;153.20;;;17.60;99.90;;;;;;5055028;28;20520;-79
2022/08/18 03:21:58;;;;;;;306.42;150.93;;;17.50;99.90;;;;;;5027240;28;20044;-79
2022/08/18 03:24:30;;;;;;;276.42;142.63;;;17.50;99.90;;;;;;5034737;28;20046;-79
2022/08/18 03:26:58;;;;;;;280.50;145.93;;;17.50;99.90;;;;;;5049989;28;20106;-80
2022/08/18 03:29:24;;;;;;;287.48;146.65;;;17.40;99.90;;;;;;5053792;28;20103;-79
2022/08/18 03:32:00;;;;;;;292.63;144.90;;;17.40;99.90;;;;;;5037246;28;20050;-78
2022/08/18 03:34:27;;;;;;;297.20;150.73;;;17.40;99.90;;;;;;5029897;28;20048;-78
2022/08/18 03:36:53;;;;;;;298.02;149.70;;;17.30;99.90;;;;;;5043232;28;20117;-78
2022/08/18 03:39:22;;;;;;;306.10;154.15;;;17.30;99.90;;;;;;5042639;28;20641;-78
2022/08/18 03:41:53;;;;;;;274.42;149.00;;;17.40;99.90;;;;;;5041534;28;20474;-78
2022/08/18 03:44:32;;;;;;;300.80;147.43;;;17.40;99.90;;;;;;5046686;28;20455;-77
2022/08/18 03:47:02;;;;;;;300.42;148.35;;;17.50;99.90;;;;;;5046775;28;20072;-78
2022/08/18 03:49:32;;;;;;;310.45;156.25;;;17.60;99.90;;;;;;5053448;28;20041;-78
2022/08/18 03:51:59;;;;;;;293.38;152.35;;;17.50;99.90;;;;;;5050176;28;20564;-78
2022/08/18 03:54:30;;;;;;;310.27;159.90;;;17.50;99.90;;;;;;5053335;28;20220;-79
2022/08/18 03:56:58;;;;;;;293.83;153.27;;;17.50;99.90;;;;;;5057465;28;20041;-78
2022/08/18 03:59:26;;;;;;;320.42;156.70;;;17.50;99.90;;;;;;5051065;28;20044;-78
2022/08/18 04:01:54;;;;;;;329.00;156.40;;;17.50;99.90;;;;;;5055263;28;20037;-78
2022/08/18 04:04:24;;;;;;;326.77;155.93;;;17.50;99.90;;;;;;5054321;28;20044;-78
2022/08/18 04:06:55;;;;;;;330.83;162.60;;;17.60;99.90;;;;;;5051506;28;20276;-78
2022/08/18 04:09:24;;;;;;;318.17;157.15;;;17.60;99.90;;;;;;5047890;28;20045;-78
2022/08/18 04:11:51;;;;;;;313.05;153.88;;;17.50;99.90;;;;;;5042295;28;20049;-78
2022/08/18 04:14:22;;;;;;;317.45;158.13;;;17.50;99.90;;;;;;5054028;28;20057;-79
2022/08/18 04:16:49;;;;;;;316.80;156.43;;;17.60;99.90;;;;;;5034756;28;20373;-78
2022/08/18 04:19:17;;;;;;;317.42;157.68;;;17.60;99.90;;;;;;5045735;28;20340;-78
2022/08/18 04:21:56;;;;;;;282.25;147.93;;;17.60;99.90;;;;;;5044625;28;20493;-78
2022/08/18 04:24:24;;;;;;;288.40;148.38;;;17.60;99.90;;;;;;5053619;28;20040;-80
2022/08/18 04:26:55;;;;;;;290.77;153.95;;;17.60;99.90;;;;;;5027982;28;20058;-79
2022/08/18 04:29:22;;;;;;;299.60;151.00;;;17.60;99.90;;;;;;5054066;28;20271;-79
2022/08/18 04:31:50;;;;;;;321.85;156.30;;;17.60;99.90;;;;;;5036781;28;20037;-78
2022/08/18 04:34:19;;;;;;;302.40;157.30;;;17.50;99.90;;;;;;5041884;28;20067;-79
2022/08/18 04:36:47;;;;;;;321.77;159.68;;;17.50;99.90;;;;;;5044489;28;20467;-79
2022/08/18 04:39:14;;;;;;;337.75;168.70;;;17.50;99.90;;;;;;5055168;28;20738;-78
2022/08/18 04:41:43;;;;;;;329.08;164.32;;;17.50;99.90;;;;;;5052521;28;20090;-78
2022/08/18 04:44:11;;;;;;;361.52;172.50;;;17.50;99.90;;;;;;5054495;28;20037;-77
2022/08/18 04:46:53;;;;;;;356.75;172.43;;;17.50;99.90;;;;;;5051011;28;20458;-78
2022/08/18 04:49:24;;;;;;;364.55;169.30;;;17.50;99.90;;;;;;5046850;28;20143;-78
2022/08/18 04:54:59;;;;;;;394.40;176.50;;;17.40;99.90;;;;;;5049246;28;20135;-79
2022/08/18 04:57:27;;;;;;;371.02;177.02;;;17.40;99.90;;;;;;5045840;28;20147;-78
2022/08/18 04:59:58;;;;;;;367.35;173.32;;;17.40;99.90;;;;;;5032509;28;20136;-78
2022/08/18 05:02:25;;;;;;;345.73;164.10;;;17.40;99.90;;;;;;5040258;28;20446;-77
2022/08/18 05:04:52;;;;;;;349.73;171.40;;;17.50;99.90;;;;;;5032805;28;20625;-76
2022/08/18 05:07:24;;;;;;;330.13;163.73;;;17.40;99.90;;;;;;5047713;28;20510;-80
2022/08/18 05:09:53;;;;;;;387.98;177.40;;;17.50;99.90;;;;;;5056166;28;20051;-77
2022/08/18 05:12:21;;;;;;;375.80;172.40;;;17.50;99.90;;;;;;5049111;28;20048;-77
2022/08/18 05:14:52;;;;;;;347.05;164.70;;;17.40;99.90;;;;;;5044996;28;20091;-77
2022/08/18 05:17:19;;;;;;;372.48;175.93;;;17.40;99.90;;;;;;5057700;28;20756;-77
2022/08/18 05:19:46;;;;;;;377.73;174.30;;;17.50;99.90;;;;;;5058345;28;20072;-77
2022/08/18 05:22:18;;;;;;;384.73;174.18;;;17.50;99.90;;;;;;5035260;28;20071;-77
2022/08/18 05:24:54;;;;;;;363.23;169.70;;;17.50;99.90;;;;;;5041921;28;20505;-77
2022/08/18 05:27:21;;;;;;;379.02;172.35;;;17.60;99.90;;;;;;5045467;28;20125;-76
2022/08/18 05:29:48;;;;;;;338.27;166.43;;;17.60;99.90;;;;;;5043609;28;20505;-79
2022/08/18 05:32:17;;;;;;;347.77;166.25;;;17.70;99.90;;;;;;5044794;28;20060;-80
2022/08/18 05:35:10;;;;;;;327.02;157.23;;;17.70;99.90;;;;;;5053720;28;20447;-78
2022/08/18 05:38:18;;;;;;;300.63;149.68;;;17.80;99.90;;;;;;5047485;28;20058;-79
2022/08/18 05:40:54;;;;;;;273.00;142.55;;;17.80;99.90;;;;;;5033245;28;20037;-78
2022/08/18 05:43:21;;;;;;;282.77;144.90;;;17.90;99.90;;;;;;5044737;28;20055;-78
2022/08/18 05:45:50;;;;;;;284.48;149.68;;;18.00;99.90;;;;;;5051005;28;20036;-79
2022/08/18 05:48:17;;;;;;;260.20;141.27;;;18.00;99.90;;;;;;5053961;28;20109;-80
2022/08/18 05:50:44;;;;;;;272.65;144.50;;;18.00;99.90;;;;;;5056026;28;20337;-78
2022/08/18 05:53:13;;;;;;;262.92;146.93;;;18.20;99.90;;;;;;5049014;28;20522;-79
2022/08/18 05:58:54;;;;;;;236.88;135.68;;;18.20;99.90;;;;;;5051963;28;20390;-77
2022/08/18 06:01:26;;;;;;;242.20;137.13;;;18.20;99.90;;;;;;5044622;28;20121;-79
2022/08/18 06:04:20;;;;;;;252.57;139.88;;;18.30;99.90;;;;;;5051608;28;20040;-79
2022/08/18 06:06:48;;;;;;;259.25;144.13;;;18.30;99.90;;;;;;5056388;28;20083;-78
2022/08/18 06:09:36;;;;;;;271.05;143.65;;;18.30;99.90;;;;;;5029513;28;20394;-78
2022/08/18 06:12:16;;;;;;;290.58;149.57;;;18.30;99.90;;;;;;5055209;28;20189;-77
2022/08/18 06:14:43;;;;;;;313.83;152.25;;;18.20;99.90;;;;;;5052328;28;20048;-78
2022/08/18 06:17:40;;;;;;;292.17;143.57;;;18.10;99.90;;;;;;5053829;28;20143;-79
2022/08/18 06:21:04;;;;;;;302.42;139.85;;;18.00;99.90;;;;;;5057610;28;20051;-77
2022/08/18 06:23:35;;;;;;;290.10;134.05;;;18.00;99.90;;;;;;4952962;28;20058;-78
2022/08/18 06:26:04;;;;;;;297.30;140.48;;;18.10;99.90;;;;;;5053310;28;20172;-78
2022/08/18 06:28:51;;;;;;;296.02;140.55;;;18.10;99.90;;;;;;5052602;28;20114;-77
2022/08/18 06:31:51;;;;;;;275.80;130.48;;;18.20;99.90;;;;;;5053356;28;20114;-78
2022/08/18 06:34:52;;;;;;;300.85;141.65;;;18.00;99.90;;;;;;5039274;28;20449;-78
2022/08/18 06:40:32;;;;;;;279.98;131.52;;;18.10;99.90;;;;;;5051912;28;20079;-77
2022/08/18 06:42:59;;;;;;;265.35;122.72;;;18.10;99.90;;;;;;5056324;28;20192;-78
2022/08/18 06:45:34;;;;;;;264.98;125.72;;;18.20;99.90;;;;;;5051491;28;20129;-78
2022/08/18 06:48:16;;;;;;;266.80;121.97;;;18.10;99.90;;;;;;5053566;28;20053;-78
2022/08/18 06:50:50;;;;;;;262.48;124.50;;;18.10;99.90;;;;;;5044240;28;20718;-78
2022/08/18 06:53:18;;;;;;;258.40;123.82;;;18.20;99.90;;;;;;5044079;28;20052;-79
2022/08/18 06:55:54;;;;;;;254.25;126.25;;;18.20;99.90;;;;;;5039453;28;20049;-78
2022/08/18 06:58:30;;;;;;;248.70;123.78;;;18.20;99.90;;;;;;5054969;28;20116;-78
2022/08/18 07:01:05;;;;;;;248.10;126.25;;;18.20;99.90;;;;;;5021197;28;20045;-78
2022/08/18 07:03:35;;;;;;;244.55;123.05;;;18.30;99.90;;;;;;5035183;28;21277;-78
2022/08/18 07:06:05;;;;;;;233.70;117.20;;;18.40;99.90;;;;;;5052543;28;20044;-77
2022/08/18 07:08:35;;;;;;;218.45;108.53;;;18.40;99.90;;;;;;5054420;28;20052;-78
2022/08/18 07:11:28;;;;;;;218.20;110.53;;;18.30;99.90;;;;;;5057979;28;20044;-78
2022/08/18 07:14:13;;;;;;;204.82;99.60;;;18.20;99.90;;;;;;5052144;28;20045;-78
2022/08/18 07:16:44;;;;;;;201.02;99.80;;;18.30;99.90;;;;;;5051788;28;20643;-77
2022/08/18 07:19:30;;;;;;;210.57;102.85;;;18.30;99.90;;;;;;5055926;28;20446;-77
2022/08/18 07:22:06;;;;;;;212.30;106.75;;;18.20;99.90;;;;;;5057650;28;20090;-76
2022/08/18 07:24:45;;;;;;;219.80;108.50;;;18.30;99.90;;;;;;5055767;28;20048;-76
2022/08/18 07:27:16;;;;;;;235.30;113.85;;;18.30;99.90;;;;;;5048973;28;20447;-76
2022/08/18 07:30:08;;;;;;;253.88;119.28;;;18.20;99.90;;;;;;5045877;28;20202;-76
2022/08/18 07:33:01;;;;;;;245.43;116.32;;;18.10;99.90;;;;;;5052677;28;20048;-76
2022/08/18 07:35:51;;;;;;;224.68;109.30;;;18.20;99.90;;;;;;5053886;28;20054;-77
2022/08/18 07:38:44;;;;;;;214.60;104.35;;;18.10;99.90;;;;;;5031735;28;20053;-77
2022/08/18 07:41:19;;;;;;;199.30;97.38;;;18.20;99.90;;;;;;5031512;28;20076;-76
2022/08/18 07:43:52;;;;;;;207.45;100.72;;;18.20;99.90;;;;;;5055895;28;20102;-76
2022/08/18 07:46:43;;;;;;;205.70;100.03;;;18.20;99.90;;;;;;5053751;28;20106;-77
2022/08/18 07:49:18;;;;;;;210.85;103.63;;;18.10;99.90;;;;;;5040310;28;20049;-76
2022/08/18 07:51:57;;;;;;;221.05;106.70;;;18.10;99.90;;;;;;5038500;28;20044;-76
2022/08/18 07:54:44;;;;;;;226.75;107.95;;;18.10;99.90;;;;;;5050688;28;20136;-77
2022/08/18 07:57:36;;;;;;;235.95;110.38;;;18.00;99.90;;;;;;5046893;28;20060;-76
2022/08/18 08:00:35;;;;;;;217.20;105.63;;;18.10;99.90;;;;;;5054118;28;20059;-77
2022/08/18 08:03:44;;;;;;;192.32;98.38;;;18.00;99.90;;;;;;5027896;28;20350;-78
2022/08/18 08:06:24;;;;;;;196.73;102.57;;;17.90;99.90;;;;;;5049254;28;20118;-76
2022/08/18 08:12:35;;;;;;;169.27;90.65;;;18.20;99.90;;;;;;5046524;28;20055;-78
2022/08/18 08:15:41;;;;;;;159.75;91.25;;;18.50;99.90;;;;;;5054164;28;20089;-77
2022/08/18 08:18:24;;;;;;;168.17;94.07;;;18.60;99.90;;;;;;5048926;28;20060;-77
2022/08/18 08:20:59;;;;;;;149.85;87.38;;;18.70;99.90;;;;;;5029799;28;20114;-77
2022/08/18 08:23:46;;;;;;;163.35;91.90;;;18.90;99.90;;;;;;5028288;28;20107;-78
2022/08/18 08:26:34;;;;;;;162.75;93.13;;;19.00;99.90;;;;;;5046694;28;20456;-78
2022/08/18 08:29:01;;;;;;;165.18;95.78;;;19.00;99.90;;;;;;5040799;28;20478;-78
2022/08/18 08:31:38;;;;;;;159.68;92.10;;;19.00;99.90;;;;;;5054538;28;20227;-77
2022/08/18 08:34:24;;;;;;;158.48;91.95;;;19.00;99.90;;;;;;5052770;28;20055;-78
2022/08/18 08:36:59;;;;;;;163.93;92.30;;;19.00;99.90;;;;;;5038601;28;20106;-77
2022/08/18 08:39:50;;;;;;;163.13;90.88;;;18.90;99.90;;;;;;5054895;28;20055;-77
2022/08/18 08:42:25;;;;;;;144.20;86.03;;;19.10;99.90;;;;;;5062508;28;20510;-78
2022/08/18 08:45:09;;;;;;;136.52;83.80;;;19.00;99.90;;;;;;5067200;28;20054;-78
2022/08/18 08:47:49;;;;;;;138.65;82.20;;;19.10;99.90;;;;;;5053770;28;20208;-77
2022/08/18 08:50:25;;;;;;;139.45;82.55;;;19.10;99.90;;;;;;5032885;28;20285;-78
2022/08/18 08:53:00;;;;;;;128.70;79.78;;;19.20;99.90;;;;;;5044554;28;20292;-78
2022/08/18 08:55:32;;;;;;;119.22;76.13;;;19.30;99.90;;;;;;5036049;28;20045;-77
2022/08/18 08:58:25;;;;;;;125.05;78.60;;;19.40;99.90;;;;;;5053478;28;20135;-78
2022/08/18 09:00:54;;;;;;;121.00;75.05;;;19.40;99.90;;;;;;5034570;28;20040;-77
2022/08/18 09:03:36;;;;;;;127.65;76.70;;;19.40;99.90;;;;;;5050681;28;20052;-77
2022/08/18 09:06:46;;;;;;;127.32;78.03;;;19.50;99.90;;;;;;5050968;28;20073;-76
2022/08/18 09:09:43;;;;;;;121.28;77.70;;;19.50;99.90;;;;;;5036778;28;20461;-78
2022/08/18 09:12:45;;;;;;;118.63;77.57;;;19.50;99.90;;;;;;5017610;28;20040;-78
2022/08/18 09:15:34;;;;;;;111.82;74.93;;;19.80;99.90;;;;;;5013444;28;20125;-77
2022/08/18 09:18:23;;;;;;;110.28;73.43;;;20.10;99.90;;;;;;5041748;28;20356;-77
2022/08/18 09:21:17;;;;;;;113.47;77.60;;;20.10;99.90;;;;;;5058419;28;20690;-77
2022/08/18 09:23:49;;;;;;;102.15;73.20;;;20.30;99.90;;;;;;5045089;28;20465;-77
2022/08/18 09:26:53;;;;;;;111.32;74.78;;;20.50;99.90;;;;;;5058591;28;20098;-77
2022/08/18 09:29:43;;;;;;;114.68;77.45;;;20.50;99.90;;;;;;5062923;28;20118;-78
2022/08/18 09:32:19;;;;;;;104.60;74.55;;;20.30;99.90;;;;;;5042106;28;20051;-77
2022/08/18 09:41:32;;;;;;;102.82;73.50;;;20.30;99.90;;;;;;5038579;28;20117;-76
2022/08/18 09:44:13;;;;;;;107.85;77.93;;;20.40;99.90;;;;;;5042746;28;20139;-76
2022/08/18 09:47:00;;;;;;;112.68;74.63;;;20.50;99.90;;;;;;5059989;28;20135;-77
2022/08/18 09:49:28;;;;;;;98.53;73.82;;;20.60;99.90;;;;;;5046886;28;20451;-77
2022/08/18 09:52:25;;;;;;;109.30;75.78;;;20.80;99.90;;;;;;5059233;28;20041;-77
2022/08/18 09:54:57;;;;;;;103.88;74.70;;;20.80;99.90;;;;;;5038041;28;20417;-78
2022/08/18 09:57:30;;;;;;;105.70;75.65;;;20.80;99.90;;;;;;5051368;28;20102;-77
2022/08/18 10:00:11;;;;;;;97.47;71.63;;;20.80;99.90;;;;;;5051647;28;20049;-77
2022/08/18 10:02:39;;;;;;;107.32;75.63;;;20.70;99.90;;;;;;5062452;28;20488;-77
2022/08/18 10:05:14;;;;;;;108.43;76.57;;;20.80;99.90;;;;;;5025259;28;20055;-75
2022/08/18 10:08:06;;;;;;;107.68;77.70;;;20.90;99.90;;;;;;5061831;28;20054;-77
2022/08/18 10:10:58;;;;;;;102.25;76.15;;;21.00;99.90;;;;;;5054169;28;20959;-77
2022/08/18 10:13:57;;;;;;;107.22;78.47;;;21.00;99.90;;;;;;5038193;28;20124;-77
2022/08/18 10:16:51;;;;;;;106.80;76.35;;;20.80;99.90;;;;;;5056109;28;20483;-78
2022/08/18 10:20:01;;;;;;;109.47;78.35;;;20.80;99.90;;;;;;5044676;28;20047;-77
2022/08/18 10:22:47;;;;;;;105.88;76.57;;;21.10;99.90;;;;;;5025242;28;20048;-77
2022/08/18 10:25:31;;;;;;;108.30;77.28;;;21.00;99.90;;;;;;5066863;28;20044;-77
2022/08/18 10:27:58;;;;;;;109.20;78.13;;;21.10;99.90;;;;;;5039732;28;20053;-77
2022/08/18 10:30:29;;;;;;;102.28;78.10;;;21.30;99.90;;;;;;5036921;28;20045;-78
2022/08/18 10:33:03;;;;;;;102.40;76.90;;;21.20;99.90;;;;;;5046516;28;20113;-77
2022/08/18 10:35:59;;;;;;;102.57;78.70;;;21.20;99.90;;;;;;5043085;28;20040;-76
2022/08/18 10:38:42;;;;;;;99.90;76.15;;;21.30;99.90;;;;;;5055646;28;20041;-79
2022/08/18 10:41:27;;;;;;;99.63;74.50;;;21.30;99.90;;;;;;5045057;28;20071;-77
2022/08/18 10:43:58;;;;;;;104.68;77.75;;;21.30;99.90;;;;;;5042011;28;20578;-77
2022/08/18 10:46:35;;;;;;;104.93;77.28;;;21.30;99.90;;;;;;5063240;28;20041;-77
2022/08/18 10:49:12;;;;;;;101.90;76.57;;;21.40;99.90;;;;;;5052238;28;20076;-78
2022/08/18 10:52:01;;;;;;;99.70;77.30;;;21.50;99.90;;;;;;5062295;28;20350;-76
2022/08/18 10:54:47;;;;;;;111.28;81.15;;;21.50;99.90;;;;;;5061836;28;20048;-77
2022/08/18 10:57:46;;;;;;;104.20;78.90;;;21.50;99.90;;;;;;5054249;28;20067;-76
2022/08/18 11:00:20;;;;;;;103.13;77.82;;;21.60;99.90;;;;;;5067451;28;20044;-77
2022/08/18 11:02:51;;;;;;;104.65;80.53;;;21.60;99.90;;;;;;5034183;28;20128;-77
2022/08/18 11:05:29;;;;;;;103.90;79.15;;;21.70;99.90;;;;;;5031968;28;20122;-77
2022/08/18 11:08:02;;;;;;;105.57;78.65;;;21.80;99.90;;;;;;5046065;28;20048;-77
2022/08/18 11:10:47;;;;;;;99.10;76.50;;;21.80;99.90;;;;;;5052632;28;20151;-76
2022/08/18 11:14:06;;;;;;;99.38;77.15;;;21.70;99.90;;;;;;5046180;28;20048;-77
2022/08/18 11:16:43;;;;;;;109.07;80.63;;;21.60;99.90;;;;;;5040576;28;20237;-76
2022/08/18 11:19:13;;;;;;;115.53;85.07;;;21.70;99.90;;;;;;5048095;28;20454;-77
2022/08/18 11:21:44;;;;;;;115.82;81.70;;;21.60;99.90;;;;;;5026984;28;20116;-76
2022/08/18 11:24:31;;;;;;;117.10;83.60;;;21.60;99.90;;;;;;5070699;28;20414;-77
2022/08/18 11:27:15;;;;;;;106.97;80.05;;;21.40;99.90;;;;;;5056736;28;20040;-77
2022/08/18 11:29:43;;;;;;;106.60;78.80;;;21.30;99.90;;;;;;5057540;28;20051;-77
2022/08/18 11:32:14;;;;;;;112.47;80.80;;;21.40;99.90;;;;;;5045224;28;20457;-77
2022/08/18 11:34:51;;;;;;;111.82;80.63;;;21.40;99.90;;;;;;5060136;28;20044;-77
2022/08/18 11:37:40;;;;;;;114.65;80.13;;;21.60;99.90;;;;;;5055827;28;20055;-77
2022/08/18 11:40:17;;;;;;;103.85;78.40;;;21.80;99.90;;;;;;5051835;28;20044;-77
2022/08/18 11:43:18;;;;;;;105.50;81.25;;;21.90;99.90;;;;;;5044475;28;20102;-76
2022/08/18 11:45:51;;;;;;;102.70;76.40;;;22.20;99.90;;;;;;5049384;28;20047;-77
2022/08/18 11:48:21;;;;;;;93.05;73.65;;;22.30;99.90;;;;;;5058480;28;20472;-78
2022/08/18 11:50:55;;;;;;;95.05;74.20;;;22.40;99.90;;;;;;5036371;28;20048;-76
2022/08/18 11:53:33;;;;;;;88.53;69.88;;;22.40;99.90;;;;;;5061445;28;20105;-78
2022/08/18 11:56:13;;;;;;;76.28;63.97;;;22.40;99.90;;;;;;5042161;28;20101;-77
2022/08/18 11:58:46;;;;;;;82.38;69.60;;;22.50;99.90;;;;;;5036782;28;20052;-77
2022/08/18 12:01:48;;;;;;;85.53;69.10;;;22.40;99.90;;;;;;5063130;28;20040;-78
2022/08/18 12:04:36;;;;;;;72.32;61.92;;;22.40;99.90;;;;;;5065887;28;20040;-78
2022/08/18 12:07:14;;;;;;;71.70;62.50;;;22.60;99.90;;;;;;5054443;28;20047;-77
2022/08/18 12:10:23;;;;;;;67.38;60.22;;;22.70;99.90;;;;;;5056744;28;20218;-79
2022/08/18 12:12:56;;;;;;;63.72;56.92;;;22.80;99.90;;;;;;5059711;28;20055;-77
2022/08/18 12:15:26;;;;;;;66.63;59.10;;;22.80;99.90;;;;;;5041378;28;20048;-79
2022/08/18 12:18:10;;;;;;;71.20;61.33;;;22.70;99.90;;;;;;5053246;28;20053;-78
2022/08/18 12:20:52;;;;;;;68.25;58.97;;;22.80;99.90;;;;;;5058941;28;20044;-77
2022/08/18 12:23:18;;;;;;;70.43;61.13;;;22.80;99.90;;;;;;5042216;28;20662;-76
2022/08/18 12:25:47;;;;;;;69.55;59.65;;;22.90;99.90;;;;;;5047733;28;20297;-73
2022/08/18 12:28:18;;;;;;;70.72;62.10;;;22.90;99.90;;;;;;5057607;28;20056;-74
2022/08/18 12:30:48;;;;;;;73.88;63.13;;;23.10;99.90;;;;;;5036830;28;20041;-75
2022/08/18 12:33:23;;;;;;;77.82;67.10;;;23.00;99.90;;;;;;5061397;28;20040;-75
2022/08/18 12:36:11;;;;;;;78.72;65.35;;;23.00;99.90;;;;;;5031085;28;20036;-76
2022/08/18 12:38:58;;;;;;;75.07;63.83;;;22.90;99.90;;;;;;5061541;28;20140;-76
2022/08/18 12:41:24;;;;;;;71.25;63.00;;;23.10;99.90;;;;;;5048480;28;20336;-75
2022/08/18 12:43:52;;;;;;;71.97;63.90;;;23.40;99.90;;;;;;5045536;28;20040;-76
2022/08/18 12:46:26;;;;;;;65.97;58.92;;;23.90;99.90;;;;;;5054236;28;20052;-76
2022/08/18 12:48:52;;;;;;;65.25;57.50;;;24.00;99.90;;;;;;5049894;28;20101;-77
2022/08/18 12:51:20;;;;;;;65.70;58.70;;;24.10;99.90;;;;;;5053695;28;20056;-77
2022/08/18 12:54:06;;;;;;;62.65;56.05;;;24.20;99.90;;;;;;5055067;28;20048;-77
2022/08/18 12:56:39;;;;;;;64.18;57.55;;;24.10;99.90;;;;;;5022239;28;20403;-77
2022/08/18 12:59:08;;;;;;;60.45;54.42;;;24.00;99.90;;;;;;5067664;28;20048;-76
2022/08/18 13:01:37;;;;;;;62.65;56.05;;;23.80;99.90;;;;;;5054956;28;20044;-76
2022/08/18 13:04:06;;;;;;;61.20;54.95;;;23.50;99.90;;;;;;5048121;28;20268;-77
2022/08/18 13:06:45;;;;;;;62.30;55.28;;;23.50;99.90;;;;;;5051495;28;20379;-76
2022/08/18 13:09:29;;;;;;;59.50;53.35;;;23.70;99.90;;;;;;5054805;28;20114;-77
2022/08/18 13:12:17;;;;;;;55.15;49.65;;;23.70;99.90;;;;;;5051593;28;20506;-77
2022/08/18 13:14:45;;;;;;;54.30;49.15;;;23.90;99.90;;;;;;5060231;28;20541;-77
2022/08/18 13:17:13;;;;;;;58.17;51.97;;;23.90;99.90;;;;;;5068936;28;20232;-77
2022/08/18 13:20:05;;;;;;;57.63;51.85;;;24.00;99.90;;;;;;5037703;28;20522;-75
2022/08/18 13:22:34;;;;;;;56.63;51.03;;;23.90;99.90;;;;;;5051774;28;20051;-74
2022/08/18 13:25:03;;;;;;;55.28;49.83;;;24.10;99.90;;;;;;5047397;28;20136;-75